createdAt,value
2019-03-29T00:00:47.405Z,11.25
2019-03-29T00:01:47.384Z,11.22
2019-03-29T00:02:47.361Z,11.19
2019-03-29T00:03:47.344Z,11.15
2019-03-29T00:04:47.324Z,11.10
2019-03-29T00:05:47.299Z,11.05
2019-03-29T00:06:47.279Z,11.10
2019-03-29T00:07:47.257Z,11.01
2019-03-29T00:08:47.237Z,10.97
2019-03-29T00:09:47.216Z,10.97
2019-03-29T00:10:47.305Z,10.94
2019-03-29T00:11:47.174Z,10.87
2019-03-29T00:12:47.154Z,10.76
2019-03-29T00:13:47.135Z,10.69
2019-03-29T00:14:47.108Z,10.68
2019-03-29T00:15:47.130Z,10.64
2019-03-29T00:16:47.066Z,10.58
2019-03-29T00:17:47.046Z,10.64
2019-03-29T00:18:47.023Z,10.61
2019-03-29T00:19:47.002Z,10.53
2019-03-29T00:20:47.245Z,10.46
2019-03-29T00:21:46.959Z,10.46
2019-03-29T00:22:46.942Z,10.33
2019-03-29T00:23:46.919Z,10.41
2019-03-29T00:24:46.899Z,10.42
2019-03-29T00:25:46.876Z,10.33
2019-03-29T00:26:46.851Z,10.30
2019-03-29T00:27:46.833Z,10.33
2019-03-29T00:28:46.809Z,10.27
2019-03-29T00:29:46.790Z,10.25
2019-03-29T00:30:47.294Z,10.27
2019-03-29T00:31:46.744Z,10.27
2019-03-29T00:32:46.727Z,10.21
2019-03-29T00:33:46.713Z,10.20
2019-03-29T00:34:46.682Z,10.17
2019-03-29T00:35:46.659Z,10.15
2019-03-29T00:36:46.640Z,10.05
2019-03-29T00:37:53.385Z,10.03
2019-03-29T00:38:46.593Z,10.02
2019-03-29T00:39:46.571Z,9.97
2019-03-29T00:40:46.551Z,9.95
2019-03-29T00:41:46.535Z,10.05
2019-03-29T00:42:46.508Z,9.92
2019-03-29T00:43:46.484Z,9.92
2019-03-29T00:44:46.462Z,9.92
2019-03-29T00:45:46.441Z,9.91
2019-03-29T00:46:46.458Z,9.92
2019-03-29T00:47:46.397Z,9.91
2019-03-29T00:48:46.524Z,9.90
2019-03-29T00:49:46.424Z,9.84
2019-03-29T00:50:46.370Z,9.82
2019-03-29T00:51:46.353Z,9.80
2019-03-29T00:52:46.346Z,9.73
2019-03-29T00:53:46.351Z,9.72
2019-03-29T00:54:46.349Z,9.76
2019-03-29T00:55:46.899Z,9.72
2019-03-29T00:56:46.387Z,9.63
2019-03-29T00:57:46.179Z,9.64
2019-03-29T00:58:46.201Z,9.58
2019-03-29T00:59:46.202Z,9.63
2019-03-29T01:00:46.132Z,9.59
2019-03-29T01:01:46.124Z,9.58
2019-03-29T01:02:46.067Z,9.58
2019-03-29T01:03:46.047Z,9.49
2019-03-29T01:04:46.027Z,9.47
2019-03-29T01:05:46.875Z,9.44
2019-03-29T01:06:45.979Z,9.52
2019-03-29T01:07:45.957Z,9.49
2019-03-29T01:08:45.935Z,9.40
2019-03-29T01:09:45.914Z,9.44
2019-03-29T01:10:45.899Z,9.42
2019-03-29T01:11:45.871Z,9.36
2019-03-29T01:12:45.847Z,9.42
2019-03-29T01:13:45.825Z,9.36
2019-03-29T01:14:45.803Z,9.40
2019-03-29T01:15:45.779Z,9.30
2019-03-29T01:16:45.756Z,9.31
2019-03-29T01:17:45.925Z,9.29
2019-03-29T01:18:45.713Z,9.34
2019-03-29T01:19:45.691Z,9.19
2019-03-29T01:20:45.669Z,9.19
2019-03-29T01:21:45.650Z,9.30
2019-03-29T01:22:45.626Z,9.21
2019-03-29T01:23:45.607Z,9.24
2019-03-29T01:24:45.579Z,9.18
2019-03-29T01:25:45.558Z,9.15
2019-03-29T01:26:45.534Z,9.13
2019-03-29T01:27:46.091Z,9.15
2019-03-29T01:28:45.492Z,9.18
2019-03-29T01:29:45.469Z,9.16
2019-03-29T01:30:45.453Z,9.05
2019-03-29T01:31:45.423Z,9.11
2019-03-29T01:32:45.401Z,8.99
2019-03-29T01:33:45.378Z,8.99
2019-03-29T01:34:45.355Z,8.93
2019-03-29T01:35:45.341Z,8.97
2019-03-29T01:36:45.310Z,8.92
2019-03-29T01:37:45.997Z,8.89
2019-03-29T01:38:45.266Z,8.92
2019-03-29T01:39:45.242Z,8.93
2019-03-29T01:40:45.222Z,8.84
2019-03-29T01:41:45.199Z,8.81
2019-03-29T01:42:45.279Z,8.82
2019-03-29T01:43:45.154Z,8.81
2019-03-29T01:44:45.136Z,8.78
2019-03-29T01:45:45.919Z,8.84
2019-03-29T01:46:45.085Z,8.74
2019-03-29T01:47:45.063Z,8.75
2019-03-29T01:48:45.040Z,8.72
2019-03-29T01:49:45.019Z,8.77
2019-03-29T01:50:44.994Z,8.74
2019-03-29T01:51:44.974Z,8.74
2019-03-29T01:52:45.860Z,8.77
2019-03-29T01:53:44.927Z,8.72
2019-03-29T01:54:44.910Z,8.74
2019-03-29T01:55:44.881Z,8.68
2019-03-29T01:56:44.859Z,8.71
2019-03-29T01:57:44.837Z,8.68
2019-03-29T01:58:44.816Z,8.59
2019-03-29T01:59:44.791Z,8.64
2019-03-29T02:00:44.771Z,8.69
2019-03-29T02:01:44.747Z,8.60
2019-03-29T02:02:44.721Z,8.59
2019-03-29T02:03:44.699Z,8.60
2019-03-29T02:04:44.677Z,8.56
2019-03-29T02:05:44.655Z,8.59
2019-03-29T02:06:45.667Z,8.53
2019-03-29T02:07:44.610Z,8.49
2019-03-29T02:08:44.587Z,8.56
2019-03-29T02:09:44.562Z,8.41
2019-03-29T02:10:44.540Z,8.52
2019-03-29T02:11:44.519Z,8.45
2019-03-29T02:12:44.495Z,8.41
2019-03-29T02:13:44.470Z,8.42
2019-03-29T02:14:45.197Z,8.35
2019-03-29T02:15:44.430Z,8.28
2019-03-29T02:16:44.415Z,8.39
2019-03-29T02:17:44.380Z,8.36
2019-03-29T02:18:44.355Z,8.42
2019-03-29T02:19:44.334Z,8.36
2019-03-29T02:20:44.317Z,8.38
2019-03-29T02:21:44.289Z,8.28
2019-03-29T02:22:44.265Z,8.17
2019-03-29T02:23:44.244Z,8.23
2019-03-29T02:24:44.222Z,8.16
2019-03-29T02:25:44.197Z,8.26
2019-03-29T02:26:44.175Z,8.35
2019-03-29T02:27:44.150Z,8.17
2019-03-29T02:28:44.862Z,8.31
2019-03-29T02:29:44.104Z,8.21
2019-03-29T02:30:44.080Z,8.18
2019-03-29T02:31:44.061Z,8.23
2019-03-29T02:32:44.036Z,8.24
2019-03-29T02:33:44.021Z,8.21
2019-03-29T02:34:44.246Z,8.20
2019-03-29T02:35:43.968Z,8.21
2019-03-29T02:36:43.958Z,8.08
2019-03-29T02:37:43.926Z,8.14
2019-03-29T02:38:55.270Z,8.06
2019-03-29T02:39:43.895Z,8.08
2019-03-29T02:40:43.854Z,8.06
2019-03-29T02:41:43.838Z,8.09
2019-03-29T02:42:43.807Z,8.11
2019-03-29T02:43:43.784Z,8.08
2019-03-29T02:44:43.758Z,8.08
2019-03-29T02:45:43.738Z,8.08
2019-03-29T02:46:43.724Z,8.05
2019-03-29T02:47:43.692Z,8.02
2019-03-29T02:48:44.759Z,8.03
2019-03-29T02:49:43.643Z,8.03
2019-03-29T02:50:43.622Z,8.01
2019-03-29T02:51:43.596Z,8.06
2019-03-29T02:52:43.571Z,8.01
2019-03-29T02:53:43.547Z,7.98
2019-03-29T02:54:43.527Z,7.93
2019-03-29T02:55:43.515Z,7.87
2019-03-29T02:56:43.484Z,7.96
2019-03-29T02:57:43.457Z,7.91
2019-03-29T02:58:43.431Z,7.83
2019-03-29T02:59:43.409Z,7.87
2019-03-29T03:00:43.385Z,7.85
2019-03-29T03:01:43.360Z,7.84
2019-03-29T03:02:43.343Z,7.81
2019-03-29T03:03:43.315Z,7.78
2019-03-29T03:04:43.303Z,7.77
2019-03-29T03:05:43.275Z,7.75
2019-03-29T03:06:43.244Z,7.84
2019-03-29T03:07:43.222Z,7.80
2019-03-29T03:08:43.200Z,7.70
2019-03-29T03:09:43.176Z,7.67
2019-03-29T03:10:43.154Z,7.69
2019-03-29T03:11:43.351Z,7.74
2019-03-29T03:12:43.110Z,7.70
2019-03-29T03:13:43.080Z,7.74
2019-03-29T03:14:43.063Z,7.70
2019-03-29T03:15:43.033Z,7.72
2019-03-29T03:16:43.011Z,7.72
2019-03-29T03:17:42.988Z,7.67
2019-03-29T03:18:42.992Z,7.78
2019-03-29T03:19:42.954Z,7.75
2019-03-29T03:20:42.917Z,7.77
2019-03-29T03:21:42.898Z,7.74
2019-03-29T03:22:42.874Z,7.77
2019-03-29T03:23:42.849Z,7.78
2019-03-29T03:24:42.821Z,7.75
2019-03-29T03:25:42.800Z,7.74
2019-03-29T03:26:42.775Z,7.72
2019-03-29T03:27:42.752Z,7.75
2019-03-29T03:28:42.729Z,7.61
2019-03-29T03:29:42.707Z,7.61
2019-03-29T03:30:42.699Z,7.56
2019-03-29T03:31:42.662Z,7.69
2019-03-29T03:32:42.733Z,7.64
2019-03-29T03:33:42.611Z,7.61
2019-03-29T03:34:42.601Z,7.58
2019-03-29T03:35:42.562Z,7.62
2019-03-29T03:36:42.548Z,7.53
2019-03-29T03:37:42.620Z,7.58
2019-03-29T03:38:42.491Z,7.61
2019-03-29T03:39:42.471Z,7.51
2019-03-29T03:40:42.448Z,7.47
2019-03-29T03:41:42.422Z,7.59
2019-03-29T03:42:42.398Z,7.48
2019-03-29T03:43:42.381Z,7.47
2019-03-29T03:44:42.349Z,7.51
2019-03-29T03:45:42.326Z,7.48
2019-03-29T03:46:42.301Z,7.46
2019-03-29T03:47:42.285Z,7.47
2019-03-29T03:48:42.255Z,7.50
2019-03-29T03:49:42.238Z,7.48
2019-03-29T03:50:42.215Z,7.51
2019-03-29T03:51:42.188Z,7.47
2019-03-29T03:52:42.159Z,7.48
2019-03-29T03:53:42.138Z,7.43
2019-03-29T03:54:42.112Z,7.47
2019-03-29T03:55:42.114Z,7.46
2019-03-29T03:56:42.066Z,7.44
2019-03-29T03:57:42.047Z,7.39
2019-03-29T03:58:42.042Z,7.41
2019-03-29T03:59:41.993Z,7.37
2019-03-29T04:00:41.971Z,7.32
2019-03-29T04:01:41.946Z,7.32
2019-03-29T04:02:41.921Z,7.37
2019-03-29T04:03:41.898Z,7.29
2019-03-29T04:04:41.877Z,7.31
2019-03-29T04:05:41.851Z,7.29
2019-03-29T04:06:41.833Z,7.26
2019-03-29T04:07:41.804Z,7.28
2019-03-29T04:08:41.781Z,7.29
2019-03-29T04:09:50.021Z,7.26
2019-03-29T04:10:42.251Z,7.25
2019-03-29T04:11:41.709Z,7.29
2019-03-29T04:12:41.692Z,7.19
2019-03-29T04:13:41.661Z,7.22
2019-03-29T04:14:41.644Z,7.23
2019-03-29T04:15:41.622Z,7.11
2019-03-29T04:16:41.589Z,7.19
2019-03-29T04:17:41.565Z,7.14
2019-03-29T04:18:41.545Z,7.23
2019-03-29T04:19:41.523Z,7.21
2019-03-29T04:20:41.495Z,7.21
2019-03-29T04:21:41.469Z,7.21
2019-03-29T04:22:41.445Z,7.13
2019-03-29T04:23:41.419Z,7.07
2019-03-29T04:24:41.400Z,7.14
2019-03-29T04:25:41.386Z,7.08
2019-03-29T04:26:41.357Z,7.05
2019-03-29T04:27:41.326Z,7.07
2019-03-29T04:28:41.303Z,7.04
2019-03-29T04:29:41.279Z,7.10
2019-03-29T04:30:41.256Z,7.05
2019-03-29T04:31:41.230Z,7.08
2019-03-29T04:32:41.205Z,7.11
2019-03-29T04:33:41.183Z,7.05
2019-03-29T04:34:41.159Z,6.97
2019-03-29T04:35:41.144Z,6.93
2019-03-29T04:36:41.110Z,6.96
2019-03-29T04:37:41.086Z,6.96
2019-03-29T04:38:41.062Z,7.00
2019-03-29T04:39:41.039Z,6.97
2019-03-29T04:40:41.013Z,6.96
2019-03-29T04:41:40.992Z,6.96
2019-03-29T04:42:40.967Z,6.96
2019-03-29T04:43:40.944Z,6.93
2019-03-29T04:44:40.917Z,6.85
2019-03-29T04:45:40.894Z,6.86
2019-03-29T04:46:40.868Z,6.83
2019-03-29T04:47:40.846Z,6.89
2019-03-29T04:48:40.823Z,6.87
2019-03-29T04:49:40.799Z,6.82
2019-03-29T04:50:40.778Z,6.85
2019-03-29T04:51:40.751Z,6.72
2019-03-29T04:52:40.725Z,6.71
2019-03-29T04:53:40.707Z,6.70
2019-03-29T04:54:40.676Z,6.70
2019-03-29T04:55:40.655Z,6.67
2019-03-29T04:56:40.629Z,6.64
2019-03-29T04:57:40.606Z,6.60
2019-03-29T04:58:40.578Z,6.60
2019-03-29T04:59:40.554Z,6.70
2019-03-29T05:00:40.532Z,6.54
2019-03-29T05:01:40.529Z,6.71
2019-03-29T05:02:40.487Z,6.70
2019-03-29T05:03:40.460Z,6.60
2019-03-29T05:04:40.434Z,6.62
2019-03-29T05:05:40.413Z,6.67
2019-03-29T05:06:40.386Z,6.54
2019-03-29T05:07:40.380Z,6.59
2019-03-29T05:08:40.342Z,6.59
2019-03-29T05:09:40.423Z,6.59
2019-03-29T05:10:40.289Z,6.59
2019-03-29T05:11:40.269Z,6.64
2019-03-29T05:12:40.311Z,6.52
2019-03-29T05:13:40.217Z,6.60
2019-03-29T05:14:40.190Z,6.59
2019-03-29T05:15:40.165Z,6.60
2019-03-29T05:16:40.144Z,6.56
2019-03-29T05:17:40.123Z,6.59
2019-03-29T05:18:40.093Z,6.57
2019-03-29T05:19:40.069Z,6.54
2019-03-29T05:20:40.044Z,6.59
2019-03-29T05:21:40.021Z,6.59
2019-03-29T05:22:39.995Z,6.57
2019-03-29T05:23:39.996Z,6.50
2019-03-29T05:24:39.947Z,6.49
2019-03-29T05:25:39.924Z,6.57
2019-03-29T05:26:39.907Z,6.54
2019-03-29T05:27:40.168Z,6.53
2019-03-29T05:28:39.852Z,6.54
2019-03-29T05:29:39.829Z,6.52
2019-03-29T05:30:39.799Z,6.56
2019-03-29T05:31:39.788Z,6.59
2019-03-29T05:32:39.752Z,6.62
2019-03-29T05:33:39.727Z,6.56
2019-03-29T05:34:39.707Z,6.57
2019-03-29T05:35:39.679Z,6.56
2019-03-29T05:36:39.654Z,6.53
2019-03-29T05:37:39.637Z,6.52
2019-03-29T05:38:39.606Z,6.62
2019-03-29T05:39:39.581Z,6.65
2019-03-29T05:40:39.559Z,6.67
2019-03-29T05:41:39.532Z,6.68
2019-03-29T05:42:39.508Z,6.54
2019-03-29T05:43:39.485Z,6.60
2019-03-29T05:44:40.803Z,6.56
2019-03-29T05:45:39.441Z,6.70
2019-03-29T05:46:39.410Z,6.60
2019-03-29T05:47:39.384Z,6.60
2019-03-29T05:48:39.380Z,6.62
2019-03-29T05:49:39.341Z,6.57
2019-03-29T05:50:39.311Z,6.60
2019-03-29T05:51:39.287Z,6.64
2019-03-29T05:52:39.262Z,6.67
2019-03-29T05:53:39.238Z,6.62
2019-03-29T05:54:39.222Z,6.68
2019-03-29T05:55:39.189Z,6.65
2019-03-29T05:56:39.167Z,6.67
2019-03-29T05:57:39.145Z,6.62
2019-03-29T05:58:39.115Z,6.65
2019-03-29T05:59:39.099Z,6.65
2019-03-29T06:00:39.071Z,6.68
2019-03-29T06:01:39.042Z,6.70
2019-03-29T06:02:39.018Z,6.74
2019-03-29T06:03:38.995Z,6.72
2019-03-29T06:04:38.975Z,6.78
2019-03-29T06:05:38.947Z,6.86
2019-03-29T06:06:38.920Z,6.77
2019-03-29T06:07:38.898Z,6.83
2019-03-29T06:08:38.907Z,6.85
2019-03-29T06:09:38.849Z,6.95
2019-03-29T06:10:49.052Z,6.97
2019-03-29T06:11:38.799Z,6.95
2019-03-29T06:12:38.775Z,6.93
2019-03-29T06:13:38.751Z,7.01
2019-03-29T06:14:38.728Z,7.07
2019-03-29T06:15:38.701Z,7.10
2019-03-29T06:16:39.504Z,7.13
2019-03-29T06:17:48.528Z,7.21
2019-03-29T06:18:38.631Z,7.19
2019-03-29T06:19:38.607Z,7.28
2019-03-29T06:20:38.580Z,7.31
2019-03-29T06:21:38.557Z,7.28
2019-03-29T06:22:38.532Z,7.37
2019-03-29T06:23:38.522Z,7.41
2019-03-29T06:24:38.484Z,7.48
2019-03-29T06:25:38.467Z,7.62
2019-03-29T06:26:38.438Z,7.53
2019-03-29T06:27:38.412Z,7.66
2019-03-29T06:28:38.387Z,7.74
2019-03-29T06:29:38.367Z,7.69
2019-03-29T06:30:38.341Z,7.72
2019-03-29T06:31:38.319Z,7.77
2019-03-29T06:32:38.293Z,7.83
2019-03-29T06:33:38.332Z,7.91
2019-03-29T06:34:38.243Z,7.95
2019-03-29T06:35:38.226Z,8.02
2019-03-29T06:36:38.197Z,8.14
2019-03-29T06:37:38.174Z,8.17
2019-03-29T06:38:38.150Z,8.11
2019-03-29T06:39:38.126Z,8.20
2019-03-29T06:40:38.109Z,8.21
2019-03-29T06:41:38.079Z,8.32
2019-03-29T06:42:38.054Z,8.27
2019-03-29T06:43:38.033Z,8.44
2019-03-29T06:44:38.009Z,8.36
2019-03-29T06:45:47.851Z,8.50
2019-03-29T06:46:37.959Z,8.42
2019-03-29T06:47:37.937Z,8.60
2019-03-29T06:48:37.914Z,8.57
2019-03-29T06:49:37.891Z,8.63
2019-03-29T06:50:37.894Z,8.66
2019-03-29T06:51:37.849Z,8.74
2019-03-29T06:52:37.822Z,8.79
2019-03-29T06:53:37.798Z,8.68
2019-03-29T06:54:37.772Z,8.90
2019-03-29T06:55:37.750Z,8.81
2019-03-29T06:56:37.726Z,8.90
2019-03-29T06:57:37.756Z,9.00
2019-03-29T06:58:37.683Z,8.92
2019-03-29T06:59:37.659Z,8.99
2019-03-29T07:00:37.638Z,9.05
2019-03-29T07:01:37.612Z,9.13
2019-03-29T07:02:37.590Z,9.15
2019-03-29T07:03:37.565Z,9.16
2019-03-29T07:04:37.541Z,9.16
2019-03-29T07:05:37.519Z,9.22
2019-03-29T07:06:37.494Z,9.22
2019-03-29T07:07:37.474Z,9.31
2019-03-29T07:08:37.451Z,9.40
2019-03-29T07:09:37.429Z,9.39
2019-03-29T07:10:37.407Z,9.40
2019-03-29T07:11:39.700Z,9.45
2019-03-29T07:12:37.358Z,9.54
2019-03-29T07:13:37.337Z,9.63
2019-03-29T07:14:37.317Z,9.62
2019-03-29T07:15:37.290Z,9.67
2019-03-29T07:16:37.268Z,9.64
2019-03-29T07:17:37.247Z,9.66
2019-03-29T07:18:37.223Z,9.76
2019-03-29T07:19:37.199Z,9.70
2019-03-29T07:20:37.177Z,9.66
2019-03-29T07:21:37.153Z,9.76
2019-03-29T07:22:37.130Z,9.73
2019-03-29T07:23:37.129Z,9.74
2019-03-29T07:24:37.088Z,9.77
2019-03-29T07:25:37.063Z,9.87
2019-03-29T07:26:37.039Z,9.85
2019-03-29T07:27:44.805Z,9.91
2019-03-29T07:28:36.996Z,10.00
2019-03-29T07:29:36.974Z,10.00
2019-03-29T07:30:36.949Z,10.00
2019-03-29T07:31:36.927Z,10.02
2019-03-29T07:32:36.908Z,10.07
2019-03-29T07:33:36.881Z,10.17
2019-03-29T07:34:36.861Z,10.21
2019-03-29T07:35:36.840Z,10.17
2019-03-29T07:36:36.816Z,10.25
2019-03-29T07:37:36.794Z,10.20
2019-03-29T07:38:36.782Z,10.21
2019-03-29T07:39:36.748Z,10.21
2019-03-29T07:40:36.726Z,10.17
2019-03-29T07:41:36.702Z,10.25
2019-03-29T07:42:36.679Z,10.21
2019-03-29T07:43:36.656Z,10.36
2019-03-29T07:44:36.640Z,10.31
2019-03-29T07:45:36.613Z,10.33
2019-03-29T07:46:36.589Z,10.36
2019-03-29T07:47:36.570Z,10.57
2019-03-29T07:48:37.804Z,10.55
2019-03-29T07:49:36.544Z,10.59
2019-03-29T07:50:36.498Z,10.61
2019-03-29T07:51:36.478Z,10.65
2019-03-29T07:52:36.457Z,10.68
2019-03-29T07:53:36.434Z,10.76
2019-03-29T07:54:36.416Z,10.84
2019-03-29T07:55:37.387Z,10.80
2019-03-29T07:56:36.365Z,10.82
2019-03-29T07:57:36.343Z,10.89
2019-03-29T07:58:36.439Z,10.87
2019-03-29T07:59:36.302Z,10.83
2019-03-29T08:00:36.282Z,10.86
2019-03-29T08:01:36.257Z,10.92
2019-03-29T08:02:36.239Z,10.94
2019-03-29T08:03:36.210Z,11.00
2019-03-29T08:04:36.188Z,11.05
2019-03-29T08:05:36.167Z,11.10
2019-03-29T08:06:36.146Z,11.15
2019-03-29T08:07:36.134Z,11.15
2019-03-29T08:08:36.102Z,11.16
2019-03-29T08:09:36.079Z,11.19
2019-03-29T08:10:36.055Z,11.12
2019-03-29T08:11:46.187Z,11.22
2019-03-29T08:12:36.024Z,11.30
2019-03-29T08:13:35.991Z,11.30
2019-03-29T08:14:35.968Z,11.35
2019-03-29T08:15:35.949Z,11.33
2019-03-29T08:16:35.927Z,11.41
2019-03-29T08:17:35.906Z,11.53
2019-03-29T08:18:35.882Z,11.49
2019-03-29T08:19:37.373Z,11.55
2019-03-29T08:20:40.620Z,11.60
2019-03-29T08:21:35.819Z,11.67
2019-03-29T08:22:35.804Z,11.67
2019-03-29T08:23:35.777Z,11.77
2019-03-29T08:24:35.764Z,11.70
2019-03-29T08:25:35.731Z,11.71
2019-03-29T08:26:35.717Z,11.85
2019-03-29T08:27:35.688Z,11.96
2019-03-29T08:28:35.668Z,11.89
2019-03-29T08:29:35.647Z,11.88
2019-03-29T08:30:35.680Z,11.88
2019-03-29T08:31:35.603Z,11.95
2019-03-29T08:32:35.584Z,11.95
2019-03-29T08:33:35.564Z,11.96
2019-03-29T08:34:36.048Z,11.97
2019-03-29T08:35:35.518Z,11.97
2019-03-29T08:36:35.496Z,12.05
2019-03-29T08:37:35.477Z,12.14
2019-03-29T08:38:35.453Z,12.14
2019-03-29T08:39:35.433Z,12.26
2019-03-29T08:40:35.493Z,12.21
2019-03-29T08:41:35.400Z,12.28
2019-03-29T08:42:35.369Z,12.44
2019-03-29T08:43:35.347Z,12.48
2019-03-29T08:44:35.344Z,12.62
2019-03-29T08:45:35.311Z,12.58
2019-03-29T08:46:35.285Z,12.68
2019-03-29T08:47:35.263Z,12.66
2019-03-29T08:48:35.242Z,12.72
2019-03-29T08:49:35.222Z,12.69
2019-03-29T08:50:35.203Z,12.73
2019-03-29T08:51:35.183Z,12.83
2019-03-29T08:52:35.159Z,12.84
2019-03-29T08:53:35.137Z,12.87
2019-03-29T08:54:35.151Z,12.86
2019-03-29T08:55:45.809Z,13.03
2019-03-29T08:56:35.075Z,13.02
2019-03-29T08:57:35.059Z,13.03
2019-03-29T08:58:35.031Z,13.05
2019-03-29T08:59:35.016Z,13.05
2019-03-29T09:00:34.991Z,13.19
2019-03-29T09:01:34.969Z,13.16
2019-03-29T09:02:34.948Z,13.21
2019-03-29T09:03:34.927Z,13.16
2019-03-29T09:04:34.912Z,13.23
2019-03-29T09:05:34.885Z,13.27
2019-03-29T09:06:34.864Z,13.33
2019-03-29T09:07:44.627Z,13.45
2019-03-29T09:08:34.823Z,13.46
2019-03-29T09:09:34.802Z,13.43
2019-03-29T09:10:34.781Z,13.46
2019-03-29T09:11:34.779Z,13.43
2019-03-29T09:12:34.739Z,13.46
2019-03-29T09:13:34.722Z,13.52
2019-03-29T09:14:34.700Z,13.60
2019-03-29T09:15:34.678Z,13.47
2019-03-29T09:16:34.660Z,13.50
2019-03-29T09:17:34.639Z,13.62
2019-03-29T09:18:34.619Z,13.57
2019-03-29T09:19:34.599Z,13.60
2019-03-29T09:20:34.858Z,13.57
2019-03-29T09:21:34.559Z,13.58
2019-03-29T09:22:34.534Z,13.65
2019-03-29T09:23:34.517Z,13.75
2019-03-29T09:24:34.497Z,13.71
2019-03-29T09:25:34.476Z,13.71
2019-03-29T09:26:34.455Z,13.78
2019-03-29T09:27:34.438Z,13.80
2019-03-29T09:28:34.415Z,13.87
2019-03-29T09:29:34.396Z,13.89
2019-03-29T09:30:34.373Z,13.86
2019-03-29T09:31:34.354Z,13.95
2019-03-29T09:32:34.342Z,13.97
2019-03-29T09:33:34.315Z,14.04
2019-03-29T09:34:34.296Z,14.26
2019-03-29T09:35:34.273Z,14.18
2019-03-29T09:36:34.255Z,14.07
2019-03-29T09:37:34.237Z,14.26
2019-03-29T09:38:34.212Z,14.16
2019-03-29T09:39:34.194Z,14.25
2019-03-29T09:40:34.174Z,14.25
2019-03-29T09:41:34.157Z,14.22
2019-03-29T09:42:34.133Z,14.07
2019-03-29T09:43:34.124Z,14.25
2019-03-29T09:44:34.096Z,14.28
2019-03-29T09:45:34.074Z,14.28
2019-03-29T09:46:34.055Z,14.25
2019-03-29T09:47:39.872Z,14.28
2019-03-29T09:48:34.764Z,14.37
2019-03-29T09:49:33.994Z,14.49
2019-03-29T09:50:33.974Z,14.55
2019-03-29T09:51:35.991Z,14.53
2019-03-29T09:52:33.938Z,14.61
2019-03-29T09:53:33.917Z,14.68
2019-03-29T09:54:33.896Z,14.70
2019-03-29T09:55:33.875Z,14.77
2019-03-29T09:56:39.012Z,14.78
2019-03-29T09:57:38.094Z,14.68
2019-03-29T09:58:33.821Z,14.70
2019-03-29T09:59:33.923Z,14.70
2019-03-29T10:00:33.778Z,14.71
2019-03-29T10:01:33.886Z,14.92
2019-03-29T10:02:33.745Z,14.97
2019-03-29T10:03:33.729Z,15.08
2019-03-29T10:04:33.702Z,15.08
2019-03-29T10:05:33.685Z,15.05
2019-03-29T10:06:33.666Z,15.11
2019-03-29T10:07:33.643Z,15.11
2019-03-29T10:08:33.623Z,15.17
2019-03-29T10:09:33.604Z,15.19
2019-03-29T10:10:34.788Z,15.15
2019-03-29T10:11:33.567Z,15.18
2019-03-29T10:12:43.337Z,15.15
2019-03-29T10:13:33.530Z,15.25
2019-03-29T10:14:33.777Z,15.30
2019-03-29T10:15:33.491Z,15.27
2019-03-29T10:16:33.472Z,15.36
2019-03-29T10:17:33.454Z,15.43
2019-03-29T10:18:33.435Z,15.43
2019-03-29T10:19:33.416Z,15.52
2019-03-29T10:20:33.397Z,15.37
2019-03-29T10:21:34.282Z,15.47
2019-03-29T10:22:33.360Z,15.63
2019-03-29T10:23:33.343Z,15.67
2019-03-29T10:24:33.321Z,15.69
2019-03-29T10:25:33.305Z,15.65
2019-03-29T10:26:33.292Z,15.75
2019-03-29T10:27:33.267Z,15.88
2019-03-29T10:28:33.250Z,15.96
2019-03-29T10:29:33.230Z,16.09
2019-03-29T10:30:33.211Z,15.90
2019-03-29T10:31:33.194Z,15.72
2019-03-29T10:32:33.249Z,15.72
2019-03-29T10:33:33.163Z,15.92
2019-03-29T10:34:33.139Z,16.03
2019-03-29T10:35:33.131Z,16.22
2019-03-29T10:36:33.108Z,16.25
2019-03-29T10:37:33.088Z,16.26
2019-03-29T10:38:33.072Z,16.44
2019-03-29T10:39:35.576Z,16.43
2019-03-29T10:40:33.038Z,16.43
2019-03-29T10:41:34.533Z,16.72
2019-03-29T10:42:33.009Z,17.02
2019-03-29T10:43:32.989Z,17.20
2019-03-29T10:44:32.973Z,17.50
2019-03-29T10:45:38.066Z,17.59
2019-03-29T10:46:32.943Z,18.09
2019-03-29T10:47:43.251Z,18.85
2019-03-29T10:48:32.916Z,19.16
2019-03-29T10:49:32.900Z,19.53
2019-03-29T10:50:32.892Z,19.89
2019-03-29T10:51:32.869Z,20.04
2019-03-29T10:52:32.856Z,20.42
2019-03-29T10:53:32.843Z,20.85
2019-03-29T10:54:32.830Z,20.95
2019-03-29T10:55:32.819Z,20.95
2019-03-29T10:56:34.510Z,20.64
2019-03-29T10:57:32.790Z,20.55
2019-03-29T10:58:32.771Z,20.66
2019-03-29T10:59:32.759Z,20.24
2019-03-29T11:00:32.751Z,20.46
2019-03-29T11:01:32.786Z,20.52
2019-03-29T11:02:32.720Z,20.68
2019-03-29T11:03:32.707Z,21.20
2019-03-29T11:04:32.721Z,21.38
2019-03-29T11:05:32.682Z,21.85
2019-03-29T11:06:32.673Z,22.33
2019-03-29T11:07:32.657Z,21.78
2019-03-29T11:08:32.706Z,20.95
2019-03-29T11:09:32.636Z,21.41
2019-03-29T11:10:32.624Z,21.74
2019-03-29T11:11:32.609Z,22.08
2019-03-29T11:12:32.598Z,22.44
2019-03-29T11:13:32.587Z,22.71
2019-03-29T11:14:32.581Z,23.33
2019-03-29T11:15:32.565Z,23.28
2019-03-29T11:16:32.633Z,23.06
2019-03-29T11:17:32.546Z,22.80
2019-03-29T11:18:32.534Z,22.03
2019-03-29T11:19:32.518Z,21.19
2019-03-29T11:20:32.508Z,21.28
2019-03-29T11:21:32.497Z,21.32
2019-03-29T11:22:32.488Z,21.47
2019-03-29T11:23:32.475Z,21.94
2019-03-29T11:24:32.467Z,22.55
2019-03-29T11:25:32.453Z,23.23
2019-03-29T11:26:32.445Z,23.76
2019-03-29T11:27:32.433Z,23.55
2019-03-29T11:28:32.426Z,23.20
2019-03-29T11:29:32.412Z,22.52
2019-03-29T11:30:42.077Z,22.86
2019-03-29T11:31:32.400Z,23.17
2019-03-29T11:32:32.387Z,23.13
2019-03-29T11:33:32.368Z,22.70
2019-03-29T11:34:32.355Z,22.04
2019-03-29T11:35:32.354Z,21.48
2019-03-29T11:36:32.339Z,21.80
2019-03-29T11:37:32.326Z,21.77
2019-03-29T11:38:32.314Z,22.44
2019-03-29T11:39:32.304Z,21.60
2019-03-29T11:40:32.296Z,22.06
2019-03-29T11:41:32.287Z,22.74
2019-03-29T11:42:32.273Z,23.26
2019-03-29T11:43:32.263Z,22.65
2019-03-29T11:44:32.255Z,22.44
2019-03-29T11:45:32.244Z,22.46
2019-03-29T11:46:32.233Z,23.21
2019-03-29T11:47:32.222Z,23.33
2019-03-29T11:48:32.216Z,23.47
2019-03-29T11:49:32.204Z,23.33
2019-03-29T11:50:32.199Z,23.89
2019-03-29T11:51:32.185Z,24.62
2019-03-29T11:52:33.840Z,24.65
2019-03-29T11:53:32.169Z,24.86
2019-03-29T11:54:32.159Z,25.22
2019-03-29T11:55:32.148Z,25.44
2019-03-29T11:56:32.139Z,25.22
2019-03-29T11:57:32.133Z,24.88
2019-03-29T11:58:32.124Z,24.66
2019-03-29T11:59:32.112Z,24.99
2019-03-29T12:00:32.103Z,24.09
2019-03-29T12:01:32.095Z,24.10
2019-03-29T12:02:32.084Z,24.25
2019-03-29T12:03:32.078Z,24.32
2019-03-29T12:04:32.077Z,24.34
2019-03-29T12:05:32.058Z,24.47
2019-03-29T12:06:32.051Z,24.34
2019-03-29T12:07:32.038Z,24.16
2019-03-29T12:08:32.029Z,23.56
2019-03-29T12:09:32.020Z,23.76
2019-03-29T12:10:32.010Z,22.80
2019-03-29T12:11:32.001Z,22.91
2019-03-29T12:12:31.991Z,23.14
2019-03-29T12:13:41.014Z,23.33
2019-03-29T12:14:31.974Z,23.62
2019-03-29T12:15:31.961Z,22.93
2019-03-29T12:16:31.952Z,22.81
2019-03-29T12:17:31.943Z,22.04
2019-03-29T12:18:31.929Z,21.59
2019-03-29T12:19:31.919Z,21.74
2019-03-29T12:20:31.913Z,21.84
2019-03-29T12:21:31.914Z,21.66
2019-03-29T12:22:31.886Z,21.68
2019-03-29T12:23:31.875Z,21.70
2019-03-29T12:24:31.865Z,21.30
2019-03-29T12:25:31.854Z,21.17
2019-03-29T12:26:31.841Z,21.26
2019-03-29T12:27:31.832Z,21.45
2019-03-29T12:28:31.818Z,21.62
2019-03-29T12:29:31.808Z,21.56
2019-03-29T12:30:32.508Z,21.59
2019-03-29T12:31:31.783Z,21.45
2019-03-29T12:32:31.770Z,21.43
2019-03-29T12:33:31.758Z,21.44
2019-03-29T12:34:31.744Z,21.13
2019-03-29T12:35:31.732Z,21.03
2019-03-29T12:36:31.721Z,21.19
2019-03-29T12:37:31.729Z,21.20
2019-03-29T12:38:31.697Z,20.89
2019-03-29T12:39:31.686Z,20.21
2019-03-29T12:40:31.672Z,20.14
2019-03-29T12:41:31.659Z,19.93
2019-03-29T12:42:31.658Z,19.74
2019-03-29T12:43:31.632Z,19.57
2019-03-29T12:44:31.624Z,19.71
2019-03-29T12:45:31.611Z,19.74
2019-03-29T12:46:32.483Z,19.93
2019-03-29T12:47:31.580Z,20.27
2019-03-29T12:48:31.567Z,20.66
2019-03-29T12:49:31.556Z,20.93
2019-03-29T12:50:31.539Z,21.08
2019-03-29T12:51:31.527Z,20.93
2019-03-29T12:52:31.513Z,20.39
2019-03-29T12:53:31.500Z,20.34
2019-03-29T12:54:31.487Z,20.15
2019-03-29T12:55:31.475Z,19.96
2019-03-29T12:56:31.459Z,20.08
2019-03-29T12:57:31.455Z,20.03
2019-03-29T12:58:31.432Z,20.03
2019-03-29T12:59:32.934Z,20.02
2019-03-29T13:00:31.410Z,20.19
2019-03-29T13:01:39.443Z,20.27
2019-03-29T13:02:34.411Z,20.37
2019-03-29T13:03:31.363Z,20.64
2019-03-29T13:04:31.426Z,20.96
2019-03-29T13:05:31.336Z,21.11